Terminal Aerodrome Forecast
Issued by NWS

Home | Current Version | Previous Version | Text Only | Print | Product List | Glossary On
Versions: 1 2 3 4 5 6 7 8 9 10 11 12 13
000
FTUS46 KSEW 272329
TAFHQM
TAF
KHQM 272329Z 2800/2824 25012KT 6SM HZ VCSH BKN050 BKN080
     FM280400 26006KT P6SM OVC040
     FM280900 17004KT P6SM -RA OVC030
     FM281300 15012KT 4SM -RA BR OVC020
     FM281800 20012KT 5SM -SHRA BKN025 BKN050=

USA.gov is the U.S. government's official web portal to all federal, state and local government web resources and services.